Time;durP1;ratioP1;P1;durP2;ratioP2;P2;SDS_P1;SDS_P2;PMS_P1;PMS_P2;Temp;Humidity;BMP_temperature;BMP_pressure;BME280_temperature;BME280_humidity;BME280_pressure;Samples;Min_cycle;Max_cycle;Signal;HPM_P1;HPM_P2
2022/10/02 00:01:35;;;;;;;2.08;0.73;;;18.60;99.90;;;;;;5039635;28;20574;-77
2022/10/02 00:04:07;;;;;;;2.92;0.93;;;18.50;99.90;;;;;;5044900;28;20280;-77
2022/10/02 00:06:46;;;;;;;2.30;0.60;;;18.40;99.90;;;;;;5049553;28;20212;-78
2022/10/02 00:09:24;;;;;;;2.13;0.73;;;18.30;99.90;;;;;;5052263;28;20200;-77
2022/10/02 00:11:58;;;;;;;1.80;0.80;;;18.20;99.90;;;;;;5049870;28;20605;-78
2022/10/02 00:14:35;;;;;;;3.45;0.90;;;18.20;99.90;;;;;;5052488;28;20294;-78
2022/10/02 00:17:06;;;;;;;3.65;1.00;;;18.00;99.90;;;;;;5045772;28;20250;-78
2022/10/02 00:19:37;;;;;;;1.50;0.93;;;18.00;99.90;;;;;;5041056;28;20786;-78
2022/10/02 00:22:23;;;;;;;1.77;0.90;;;18.00;99.90;;;;;;5033007;28;20308;-78
2022/10/02 00:24:59;;;;;;;3.15;0.80;;;18.00;99.90;;;;;;5032315;28;20690;-79
2022/10/02 00:27:40;;;;;;;3.22;0.80;;;18.20;99.90;;;;;;5051996;28;20219;-79
2022/10/02 00:30:14;;;;;;;3.40;0.80;;;18.40;99.90;;;;;;5049804;28;20611;-79
2022/10/02 00:32:57;;;;;;;2.80;0.80;;;18.50;99.90;;;;;;5047022;28;20203;-79
2022/10/02 00:35:46;;;;;;;2.42;0.70;;;18.80;99.90;;;;;;5037117;28;20563;-79
2022/10/02 00:38:27;;;;;;;3.08;0.60;;;19.00;99.90;;;;;;5043890;28;20196;-79
2022/10/02 00:41:27;;;;;;;1.25;0.55;;;19.20;99.90;;;;;;5049025;28;20189;-79
2022/10/02 00:44:12;;;;;;;1.98;0.55;;;19.40;99.90;;;;;;4996902;28;20213;-80
2022/10/02 00:46:52;;;;;;;1.70;0.50;;;19.50;99.90;;;;;;5046103;28;20246;-79
2022/10/02 00:49:41;;;;;;;1.25;0.50;;;19.60;99.90;;;;;;5045176;28;20203;-79
2022/10/02 00:52:24;;;;;;;1.27;0.60;;;19.70;99.90;;;;;;5025948;28;20201;-78
2022/10/02 00:55:28;;;;;;;1.98;0.50;;;19.50;99.90;;;;;;5023043;28;20233;-78
2022/10/02 00:58:14;;;;;;;2.90;0.70;;;19.40;99.90;;;;;;5023202;28;20589;-77
2022/10/02 01:00:51;;;;;;;2.22;0.90;;;19.30;99.90;;;;;;5020759;28;20201;-78
2022/10/02 01:03:25;;;;;;;1.45;0.60;;;19.10;99.90;;;;;;5020519;28;20224;-78
2022/10/02 01:05:56;;;;;;;2.25;0.80;;;18.90;99.90;;;;;;5019969;28;20200;-79
2022/10/02 01:08:27;;;;;;;1.58;0.60;;;18.80;99.90;;;;;;5020144;28;20244;-79
2022/10/02 01:11:01;;;;;;;3.85;0.60;;;18.70;99.90;;;;;;5019742;28;20679;-78
2022/10/02 01:13:33;;;;;;;1.15;0.50;;;18.70;99.90;;;;;;5028768;28;20725;-79
2022/10/02 01:16:04;;;;;;;1.50;0.70;;;18.40;99.90;;;;;;5031457;28;20223;-79
2022/10/02 01:18:35;;;;;;;3.40;0.90;;;18.40;99.90;;;;;;5032043;28;20228;-79
2022/10/02 01:21:12;;;;;;;0.63;0.40;;;18.40;99.90;;;;;;5045491;28;20208;-78
2022/10/02 01:23:48;;;;;;;2.05;0.75;;;18.40;99.90;;;;;;5056288;28;20200;-79
2022/10/02 01:26:22;;;;;;;1.88;0.75;;;18.30;99.90;;;;;;5031119;28;20193;-78
2022/10/02 01:28:53;;;;;;;2.83;1.05;;;18.30;99.90;;;;;;5031608;28;20201;-78
2022/10/02 01:31:24;;;;;;;3.95;0.85;;;18.30;99.90;;;;;;5038807;28;20198;-78
2022/10/02 01:33:55;;;;;;;2.33;0.57;;;18.50;99.90;;;;;;5048749;28;20192;-79
2022/10/02 01:36:26;;;;;;;3.17;0.70;;;18.80;99.90;;;;;;5037904;28;20201;-78
2022/10/02 01:38:57;;;;;;;2.35;0.70;;;19.00;99.90;;;;;;5032950;28;20189;-78
2022/10/02 01:41:30;;;;;;;1.60;0.60;;;19.30;99.90;;;;;;5039409;28;20242;-79
2022/10/02 01:44:03;;;;;;;3.38;0.75;;;19.50;99.90;;;;;;5057325;28;20324;-80
2022/10/02 01:46:42;;;;;;;1.27;0.50;;;19.80;99.90;;;;;;5063346;28;20223;-78
2022/10/02 01:49:35;;;;;;;2.28;0.70;;;19.90;99.90;;;;;;5040658;28;20495;-79
2022/10/02 01:52:21;;;;;;;1.10;0.60;;;20.10;99.90;;;;;;5037934;28;20204;-78
2022/10/02 01:55:10;;;;;;;4.65;1.00;;;20.20;99.90;;;;;;5050388;28;20394;-79
2022/10/02 01:58:01;;;;;;;2.92;0.70;;;20.10;99.90;;;;;;5031505;28;20232;-79
2022/10/02 02:00:45;;;;;;;2.10;0.88;;;19.90;99.90;;;;;;5031527;28;20196;-86
2022/10/02 02:03:24;;;;;;;1.27;0.77;;;19.80;99.90;;;;;;5045574;28;20236;-75
2022/10/02 02:06:04;;;;;;;4.07;1.00;;;19.80;99.90;;;;;;5046733;28;20220;-79
2022/10/02 02:08:41;;;;;;;1.08;0.63;;;20.10;99.90;;;;;;5031002;28;20283;-79
2022/10/02 02:11:15;;;;;;;1.75;0.38;;;20.30;99.90;;;;;;5042435;28;20655;-79
2022/10/02 02:13:54;;;;;;;2.13;0.68;;;20.60;99.90;;;;;;5033230;28;20220;-80
2022/10/02 02:16:31;;;;;;;1.30;0.80;;;20.70;99.90;;;;;;5037881;28;20201;-79
2022/10/02 02:19:05;;;;;;;2.47;1.20;;;20.70;99.90;;;;;;5031923;28;20201;-79
2022/10/02 02:21:39;;;;;;;2.38;1.20;;;20.90;99.90;;;;;;5043429;28;20200;-79
2022/10/02 02:24:15;;;;;;;1.63;0.70;;;21.00;99.90;;;;;;5031881;28;20200;-79
2022/10/02 02:32:40;;;;;;;1.33;0.50;;;21.20;99.90;;;;;;5042714;28;20208;-76
2022/10/02 02:35:33;;;;;;;1.83;0.65;;;21.40;99.90;;;;;;5058857;28;20193;-78
2022/10/02 02:41:07;;;;;;;1.45;0.68;;;21.70;99.90;;;;;;5058589;28;20711;-77
2022/10/02 02:43:47;;;;;;;1.63;0.70;;;21.20;99.90;;;;;;5069927;28;20208;-78
2022/10/02 02:46:25;;;;;;;2.13;0.75;;;20.90;99.90;;;;;;5070145;28;20311;-76
2022/10/02 02:49:03;;;;;;;1.42;0.70;;;20.70;99.90;;;;;;5063460;28;20211;-78
2022/10/02 02:51:52;;;;;;;2.92;1.00;;;20.40;99.90;;;;;;5066964;28;20208;-77
2022/10/02 02:54:30;;;;;;;2.35;0.88;;;20.30;99.90;;;;;;5041793;28;20193;-79
2022/10/02 02:57:18;;;;;;;2.08;0.88;;;20.00;99.90;;;;;;5055276;28;20216;-78
2022/10/02 03:00:15;;;;;;;1.98;1.00;;;19.70;99.90;;;;;;5034882;28;20255;-76
2022/10/02 03:03:01;;;;;;;2.85;1.00;;;19.60;99.90;;;;;;5039233;28;20596;-80
2022/10/02 03:05:33;;;;;;;2.58;0.80;;;19.40;99.90;;;;;;5041678;28;20205;-77
2022/10/02 03:08:15;;;;;;;1.73;0.60;;;19.20;99.90;;;;;;5040963;28;20227;-79
2022/10/02 03:11:02;;;;;;;2.65;0.70;;;19.10;99.90;;;;;;5042002;28;20228;-80
2022/10/02 03:13:49;;;;;;;0.80;0.47;;;19.00;99.90;;;;;;5041143;28;20196;-78
2022/10/02 03:17:08;;;;;;;;;;;;;;;;;;;;;
2022/10/02 03:19:52;;;;;;;1.58;0.63;;;18.90;99.90;;;;;;5051132;28;20204;-77
2022/10/02 03:22:55;;;;;;;2.85;0.50;;;18.80;99.90;;;;;;5048085;28;20269;-77
2022/10/02 03:25:31;;;;;;;0.85;0.45;;;18.80;99.90;;;;;;5049130;28;20184;-79
2022/10/02 03:28:16;;;;;;;1.50;0.50;;;18.60;99.90;;;;;;5066304;28;20224;-79
2022/10/02 03:30:58;;;;;;;2.45;0.52;;;18.70;99.90;;;;;;5075842;28;20204;-75
2022/10/02 03:33:41;;;;;;;2.90;0.65;;;18.70;99.90;;;;;;5071272;28;20223;-80
2022/10/02 03:36:36;;;;;;;0.98;0.50;;;19.10;99.90;;;;;;5067990;28;20223;-79
2022/10/02 03:39:11;;;;;;;1.52;0.50;;;19.60;99.90;;;;;;5062092;28;20200;-76
2022/10/02 03:41:42;;;;;;;1.67;0.63;;;20.00;99.90;;;;;;5066109;28;20192;-78
2022/10/02 03:44:21;;;;;;;1.80;0.60;;;20.30;99.90;;;;;;5069588;28;20225;-81
2022/10/02 03:47:02;;;;;;;1.65;0.80;;;20.60;99.90;;;;;;5071435;28;20250;-81
2022/10/02 03:49:41;;;;;;;0.75;0.35;;;20.80;99.90;;;;;;5070947;28;20180;-80
2022/10/02 03:52:20;;;;;;;1.88;0.40;;;20.80;99.90;;;;;;5064466;28;20201;-77
2022/10/02 03:55:14;;;;;;;0.77;0.40;;;20.90;99.90;;;;;;5065301;28;20698;-78
2022/10/02 03:57:47;;;;;;;3.50;0.40;;;21.00;99.90;;;;;;5060578;28;20200;-77
2022/10/02 04:00:21;;;;;;;1.30;0.47;;;21.10;99.90;;;;;;5046781;28;20197;-77
2022/10/02 04:02:57;;;;;;;2.75;0.80;;;21.10;99.90;;;;;;5044184;28;20239;-78
2022/10/02 04:05:58;;;;;;;0.88;0.40;;;21.20;99.90;;;;;;5058058;28;20196;-76
2022/10/02 04:08:54;;;;;;;1.40;0.55;;;21.30;99.90;;;;;;5070319;28;20203;-77
2022/10/02 04:11:43;;;;;;;1.15;0.40;;;21.50;99.90;;;;;;5067179;28;20225;-78
2022/10/02 04:17:25;;;;;;;1.35;0.40;;;21.60;99.90;;;;;;5065012;28;20252;-77
2022/10/02 04:20:07;;;;;;;2.15;0.50;;;21.70;99.90;;;;;;5069160;28;20193;-77
2022/10/02 04:22:42;;;;;;;1.17;0.20;;;21.40;99.90;;;;;;5046937;28;20706;-78
2022/10/02 04:25:27;;;;;;;1.08;0.30;;;21.00;99.90;;;;;;5045389;28;20189;-75
2022/10/02 04:28:04;;;;;;;2.22;0.50;;;21.10;99.90;;;;;;5051872;28;20208;-78
2022/10/02 04:30:35;;;;;;;1.30;0.50;;;21.00;99.90;;;;;;5033412;28;20205;-79
2022/10/02 04:33:14;;;;;;;1.60;0.52;;;20.90;99.90;;;;;;5040386;28;20212;-78
2022/10/02 04:35:54;;;;;;;0.82;0.50;;;21.00;99.90;;;;;;5042107;28;20198;-79
2022/10/02 04:38:53;;;;;;;2.33;0.50;;;21.10;99.90;;;;;;5032655;28;20259;-78
2022/10/02 04:41:41;;;;;;;0.57;0.30;;;21.10;99.90;;;;;;5043090;28;20635;-78
2022/10/02 04:44:20;;;;;;;0.98;0.30;;;21.30;99.90;;;;;;5051892;28;20768;-78
2022/10/02 04:47:22;;;;;;;2.40;0.60;;;21.30;99.90;;;;;;5052290;28;20196;-78
2022/10/02 04:50:18;;;;;;;0.93;0.22;;;21.40;99.90;;;;;;5051131;28;20195;-78
2022/10/02 04:53:11;;;;;;;1.55;0.28;;;21.40;99.90;;;;;;5024048;28;20221;-79
2022/10/02 04:56:01;;;;;;;1.55;0.60;;;21.20;99.90;;;;;;5031785;28;20232;-78
2022/10/02 04:58:48;;;;;;;1.33;0.50;;;20.90;99.90;;;;;;5032271;28;20276;-78
2022/10/02 05:01:28;;;;;;;1.42;0.40;;;20.80;99.90;;;;;;5054234;28;20198;-79
2022/10/02 05:04:16;;;;;;;3.50;0.60;;;20.90;99.90;;;;;;5053900;28;20252;-79
2022/10/02 05:07:04;;;;;;;2.80;0.52;;;21.00;99.90;;;;;;5036493;28;20197;-80
2022/10/02 05:09:39;;;;;;;2.17;0.60;;;21.10;99.90;;;;;;5035433;28;20208;-79
2022/10/02 05:12:28;;;;;;;2.42;0.50;;;21.30;99.90;;;;;;5031820;28;20251;-79
2022/10/02 05:15:32;;;;;;;0.63;0.30;;;21.50;99.90;;;;;;5031808;28;20205;-79
2022/10/02 05:18:30;;;;;;;0.93;0.70;;;21.60;99.90;;;;;;4997119;28;20193;-79
2022/10/02 05:21:26;;;;;;;0.90;0.30;;;21.80;99.90;;;;;;5040676;28;20196;-78
2022/10/02 05:24:16;;;;;;;1.98;0.50;;;21.90;99.90;;;;;;5033390;28;20273;-79
2022/10/02 05:27:04;;;;;;;2.42;0.50;;;21.80;99.90;;;;;;5033034;28;20205;-79
2022/10/02 05:29:49;;;;;;;1.52;0.50;;;22.10;99.90;;;;;;5031884;28;20204;-79
2022/10/02 05:32:37;;;;;;;2.75;0.40;;;22.40;99.90;;;;;;5031461;28;20306;-79
2022/10/02 05:35:30;;;;;;;1.25;0.40;;;22.30;99.90;;;;;;5031453;28;20207;-79
2022/10/02 05:38:10;;;;;;;1.50;0.40;;;22.50;99.90;;;;;;5031522;28;20233;-79
2022/10/02 05:40:49;;;;;;;0.98;0.50;;;22.60;99.90;;;;;;5035888;28;20196;-79
2022/10/02 05:43:28;;;;;;;0.93;0.57;;;22.70;99.90;;;;;;5052379;28;20221;-79
2022/10/02 05:46:03;;;;;;;1.35;0.50;;;22.90;99.90;;;;;;5031595;28;20197;-79
2022/10/02 05:48:43;;;;;;;2.67;0.50;;;23.10;99.90;;;;;;5032727;28;20200;-79
2022/10/02 05:51:27;;;;;;;1.77;0.40;;;23.30;99.90;;;;;;5041175;28;20196;-79
2022/10/02 05:54:02;;;;;;;0.77;0.30;;;23.60;99.90;;;;;;5052389;28;20204;-79
2022/10/02 05:56:39;;;;;;;1.38;0.30;;;23.70;99.90;;;;;;5052321;28;20228;-79
2022/10/02 05:59:17;;;;;;;0.70;0.40;;;23.70;99.90;;;;;;5033241;28;20739;-79
2022/10/02 06:01:51;;;;;;;0.52;0.40;;;23.70;99.90;;;;;;5030976;28;20196;-79
2022/10/02 06:04:29;;;;;;;1.17;0.60;;;23.70;99.90;;;;;;5031519;28;20221;-79
2022/10/02 06:07:05;;;;;;;2.15;0.85;;;23.60;99.90;;;;;;5030832;28;20284;-78
2022/10/02 06:09:42;;;;;;;1.35;0.50;;;23.20;99.90;;;;;;5037163;28;20197;-79
2022/10/02 06:12:19;;;;;;;1.08;0.43;;;23.40;99.90;;;;;;5037646;28;20204;-78
2022/10/02 06:14:55;;;;;;;0.85;0.50;;;23.50;99.90;;;;;;5036395;28;20208;-79
2022/10/02 06:17:30;;;;;;;1.27;0.50;;;23.70;99.90;;;;;;5017710;28;20206;-78
2022/10/02 06:20:09;;;;;;;2.28;0.75;;;23.40;99.90;;;;;;5030122;28;20197;-78
2022/10/02 06:22:47;;;;;;;2.60;0.80;;;22.90;99.90;;;;;;5025710;28;20686;-78
2022/10/02 06:25:22;;;;;;;0.50;0.47;;;22.80;99.90;;;;;;5017660;28;20197;-79
2022/10/02 06:27:59;;;;;;;2.95;0.60;;;23.10;99.90;;;;;;5018360;28;20193;-78
2022/10/02 06:30:34;;;;;;;1.98;0.60;;;23.70;99.90;;;;;;5017112;28;20193;-78
2022/10/02 06:33:11;;;;;;;1.42;0.40;;;24.00;99.90;;;;;;5018048;28;20227;-77
2022/10/02 06:35:56;;;;;;;1.48;0.47;;;23.40;99.90;;;;;;5017604;28;20203;-78
2022/10/02 06:38:41;;;;;;;1.38;0.45;;;23.10;99.90;;;;;;5023894;28;20204;-78
2022/10/02 06:41:21;;;;;;;1.10;0.38;;;23.40;99.90;;;;;;5030772;28;20203;-77
2022/10/02 06:44:06;;;;;;;1.10;0.45;;;23.70;99.90;;;;;;5034448;28;20320;-77
2022/10/02 06:46:46;;;;;;;1.33;0.43;;;24.00;99.90;;;;;;5017066;28;20208;-77
2022/10/02 06:49:31;;;;;;;1.52;0.52;;;24.10;99.90;;;;;;5019427;28;20201;-77
2022/10/02 06:52:13;;;;;;;2.47;0.70;;;24.30;99.90;;;;;;5024367;28;20203;-77
2022/10/02 06:55:01;;;;;;;0.80;0.30;;;23.90;99.90;;;;;;5030884;28;20227;-77
2022/10/02 06:57:42;;;;;;;1.45;0.40;;;24.10;99.90;;;;;;5042147;28;20205;-77
2022/10/02 07:00:15;;;;;;;1.10;0.40;;;24.20;99.90;;;;;;5037556;28;20193;-77
2022/10/02 07:03:20;;;;;;;1.10;0.40;;;24.00;99.90;;;;;;5037250;28;20207;-77
2022/10/02 07:06:22;;;;;;;1.33;0.50;;;23.30;99.90;;;;;;5036913;28;20208;-76
2022/10/02 07:09:38;;;;;;;1.42;0.60;;;23.40;99.90;;;;;;5034366;28;20200;-77
2022/10/02 07:12:27;;;;;;;0.90;0.70;;;23.00;99.90;;;;;;5056480;28;20206;-76
2022/10/02 07:15:30;;;;;;;1.35;0.77;;;22.90;99.90;;;;;;5056488;28;20196;-76
2022/10/02 07:18:18;;;;;;;1.23;0.80;;;22.80;99.90;;;;;;5036559;28;20243;-76
2022/10/02 07:20:57;;;;;;;1.50;0.75;;;22.60;99.90;;;;;;5033462;28;20607;-76
2022/10/02 07:23:42;;;;;;;1.67;0.50;;;22.50;99.90;;;;;;5015445;28;20225;-75
2022/10/02 07:26:25;;;;;;;2.22;0.60;;;22.10;99.90;;;;;;5013495;28;20202;-75
2022/10/02 07:29:06;;;;;;;1.05;0.60;;;21.90;99.90;;;;;;5014426;28;20669;-76
2022/10/02 07:31:46;;;;;;;1.05;0.40;;;21.50;99.90;;;;;;5014056;28;20673;-77
2022/10/02 07:34:29;;;;;;;1.55;0.57;;;21.10;99.90;;;;;;5022550;28;20204;-76
2022/10/02 07:37:08;;;;;;;1.45;0.50;;;20.80;99.90;;;;;;5013731;28;20198;-77
2022/10/02 07:39:51;;;;;;;0.90;0.45;;;20.30;99.90;;;;;;5013622;28;20202;-78
2022/10/02 07:42:57;;;;;;;2.00;0.70;;;19.90;99.90;;;;;;5014404;28;20284;-77
2022/10/02 07:45:40;;;;;;;0.98;0.80;;;19.50;99.90;;;;;;5013318;28;20264;-77
2022/10/02 07:48:36;;;;;;;1.58;0.93;;;19.30;99.90;;;;;;5013647;28;20218;-76
2022/10/02 07:54:11;;;;;;;13.50;12.07;;;18.90;99.90;;;;;;5052485;28;20706;-78
2022/10/02 07:56:45;;;;;;;20.42;15.50;;;18.70;99.90;;;;;;5076149;28;20312;-76
2022/10/02 07:59:20;;;;;;;5.63;3.92;;;18.50;99.90;;;;;;5054875;28;20196;-76
2022/10/02 08:01:55;;;;;;;4.22;1.88;;;18.40;99.90;;;;;;5035332;28;20283;-76
2022/10/02 08:04:31;;;;;;;1.52;1.23;;;18.30;99.90;;;;;;5052927;28;20258;-77
2022/10/02 08:07:06;;;;;;;1.30;1.17;;;18.10;99.90;;;;;;5041122;28;20205;-77
2022/10/02 08:09:40;;;;;;;1.60;1.05;;;17.90;99.90;;;;;;5032555;28;20290;-77
2022/10/02 08:12:17;;;;;;;1.23;0.50;;;17.90;99.90;;;;;;5032651;28;20224;-76
2022/10/02 08:14:54;;;;;;;1.02;0.80;;;17.80;99.90;;;;;;5033246;28;20204;-77
2022/10/02 08:17:30;;;;;;;0.98;0.60;;;17.80;99.90;;;;;;5047409;28;20206;-77
2022/10/02 08:20:07;;;;;;;1.15;0.85;;;17.60;99.90;;;;;;5033683;28;20319;-77
2022/10/02 08:22:40;;;;;;;2.45;0.88;;;17.50;99.90;;;;;;5040868;28;20204;-78
2022/10/02 08:25:24;;;;;;;1.48;0.60;;;17.50;99.90;;;;;;5052578;28;20569;-76
2022/10/02 08:28:01;;;;;;;1.48;0.65;;;17.40;99.90;;;;;;5052197;28;20702;-77
2022/10/02 08:30:34;;;;;;;0.75;0.57;;;17.30;99.90;;;;;;5053060;28;20196;-77
2022/10/02 08:33:10;;;;;;;1.40;0.75;;;17.30;99.90;;;;;;5040799;28;20204;-77
2022/10/02 08:35:48;;;;;;;1.08;0.52;;;17.40;99.90;;;;;;5032407;28;20241;-77
2022/10/02 08:38:36;;;;;;;0.88;0.63;;;17.30;99.90;;;;;;5033632;28;20318;-77
2022/10/02 08:41:38;;;;;;;1.08;0.70;;;17.30;99.90;;;;;;5036287;28;20193;-77
2022/10/02 08:44:47;;;;;;;1.00;0.70;;;17.30;99.90;;;;;;5033159;28;20402;-77
2022/10/02 08:47:57;;;;;;;0.68;0.52;;;17.20;99.90;;;;;;5034047;28;20225;-76
2022/10/02 08:51:04;;;;;;;1.77;0.73;;;17.20;99.90;;;;;;5035067;28;20204;-76
2022/10/02 08:54:00;;;;;;;2.55;0.90;;;17.20;99.90;;;;;;5053353;28;20306;-76
2022/10/02 08:56:46;;;;;;;1.83;1.08;;;17.10;99.90;;;;;;5056633;28;20220;-76
2022/10/02 09:00:04;;;;;;;1.55;1.10;;;17.10;99.90;;;;;;5052367;28;20211;-76
2022/10/02 09:03:08;;;;;;;2.17;1.05;;;16.90;99.90;;;;;;5053318;28;20274;-77
2022/10/02 09:06:12;;;;;;;2.53;1.23;;;16.90;99.90;;;;;;5053391;28;20259;-76
2022/10/02 09:09:10;;;;;;;1.45;1.00;;;16.80;99.90;;;;;;5017130;28;20204;-76
2022/10/02 09:12:20;;;;;;;1.38;0.63;;;16.80;99.90;;;;;;5031435;28;20574;-76
2022/10/02 09:15:01;;;;;;;2.20;1.00;;;16.80;99.90;;;;;;5029563;28;20574;-78
2022/10/02 09:18:04;;;;;;;2.95;0.70;;;16.80;99.90;;;;;;5031903;28;20193;-77
2022/10/02 09:21:15;;;;;;;1.30;0.65;;;16.80;99.90;;;;;;5032858;28;20221;-77
2022/10/02 09:24:19;;;;;;;0.98;0.60;;;16.80;99.90;;;;;;5031172;28;20209;-77
2022/10/02 09:27:15;;;;;;;2.63;0.90;;;16.80;99.90;;;;;;5031512;28;20668;-77
2022/10/02 09:30:22;;;;;;;1.67;0.90;;;16.80;99.90;;;;;;5031333;28;20244;-77
2022/10/02 09:33:38;;;;;;;0.77;0.77;;;16.70;99.90;;;;;;5013627;28;20221;-77
2022/10/02 09:36:58;;;;;;;1.90;1.40;;;16.70;99.90;;;;;;5013775;28;20645;-77
2022/10/02 09:40:03;;;;;;;2.25;1.10;;;16.60;99.90;;;;;;4971090;28;20533;-77
2022/10/02 09:43:06;;;;;;;1.45;0.90;;;16.60;99.90;;;;;;4947731;28;20206;-77
2022/10/02 09:46:29;;;;;;;2.75;1.00;;;16.60;99.90;;;;;;5009168;28;20225;-77
2022/10/02 09:49:25;;;;;;;2.55;1.45;;;16.60;99.90;;;;;;4987910;28;20202;-77
2022/10/02 09:52:39;;;;;;;2.97;1.60;;;16.60;99.90;;;;;;5013564;28;20215;-76
2022/10/02 09:55:36;;;;;;;2.45;1.30;;;16.60;99.90;;;;;;4999061;28;20239;-76
2022/10/02 09:58:50;;;;;;;2.72;1.60;;;16.60;99.90;;;;;;5050133;28;20204;-77
2022/10/02 10:01:49;;;;;;;4.65;1.88;;;16.60;99.90;;;;;;5041320;28;20283;-77
2022/10/02 10:05:00;;;;;;;5.90;4.18;;;16.60;99.90;;;;;;5049282;28;20221;-77
2022/10/02 10:08:07;;;;;;;5.93;2.97;;;16.60;99.90;;;;;;5050996;28;20283;-77
2022/10/02 10:11:00;;;;;;;3.40;1.90;;;16.60;99.90;;;;;;5053184;28;20710;-77
2022/10/02 10:13:52;;;;;;;5.10;1.75;;;16.50;99.90;;;;;;5058503;28;20196;-77
2022/10/02 10:16:54;;;;;;;3.42;1.67;;;16.50;99.90;;;;;;5048793;28;20279;-78
2022/10/02 10:20:15;;;;;;;3.53;2.10;;;16.50;99.90;;;;;;5033874;28;20622;-77
2022/10/02 10:23:09;;;;;;;3.53;1.70;;;16.50;99.90;;;;;;5049626;28;20228;-77
2022/10/02 10:26:42;;;;;;;2.28;1.60;;;16.50;99.90;;;;;;5051045;28;20228;-77
2022/10/02 10:30:04;;;;;;;3.33;1.83;;;16.40;99.90;;;;;;5009245;28;20305;-77
2022/10/02 10:33:05;;;;;;;4.03;2.10;;;16.50;99.90;;;;;;5022448;28;20205;-77
2022/10/02 10:39:19;;;;;;;3.00;1.80;;;16.50;99.90;;;;;;5037530;28;20554;-78
2022/10/02 10:42:29;;;;;;;3.72;2.00;;;16.50;99.90;;;;;;5052525;28;20586;-76
2022/10/02 10:45:40;;;;;;;2.92;1.80;;;16.40;99.90;;;;;;5055153;28;20251;-76
2022/10/02 10:48:42;;;;;;;2.38;1.75;;;16.40;99.90;;;;;;5025987;28;20232;-77
2022/10/02 10:51:33;;;;;;;2.47;1.60;;;16.40;99.90;;;;;;5043741;28;20200;-77
2022/10/02 10:54:47;;;;;;;2.28;1.48;;;16.40;99.90;;;;;;5035852;28;20293;-76
2022/10/02 10:57:44;;;;;;;2.30;1.50;;;16.40;99.90;;;;;;5038485;28;20267;-80
2022/10/02 11:00:27;;;;;;;2.15;1.10;;;16.40;99.90;;;;;;5043143;28;20201;-75
2022/10/02 11:03:41;;;;;;;3.13;1.35;;;16.40;99.90;;;;;;5041447;28;20260;-77
2022/10/02 11:06:50;;;;;;;1.40;1.05;;;16.40;99.90;;;;;;5054211;28;20271;-76
2022/10/02 11:09:48;;;;;;;2.33;1.38;;;16.30;99.90;;;;;;5057974;28;20214;-76
2022/10/02 11:12:45;;;;;;;1.35;1.00;;;16.30;99.90;;;;;;5041453;28;20675;-75
2022/10/02 11:15:43;;;;;;;4.25;1.65;;;16.30;99.90;;;;;;5038437;28;20624;-76
2022/10/02 11:18:37;;;;;;;2.45;1.63;;;16.30;99.90;;;;;;5062081;28;20239;-76
2022/10/02 11:21:38;;;;;;;4.18;1.75;;;16.20;99.90;;;;;;5060914;28;20287;-77
2022/10/02 11:24:39;;;;;;;3.92;2.30;;;16.20;99.90;;;;;;5040380;28;20227;-78
2022/10/02 11:27:27;;;;;;;3.50;2.30;;;16.10;99.90;;;;;;5051733;28;20259;-77
2022/10/02 11:30:23;;;;;;;5.93;2.72;;;16.10;99.90;;;;;;5049868;28;20193;-78
2022/10/02 11:33:28;;;;;;;2.88;2.30;;;16.00;99.90;;;;;;5039739;28;20199;-77
2022/10/02 11:36:40;;;;;;;2.70;2.05;;;15.90;99.90;;;;;;5057924;28;20197;-77
2022/10/02 11:39:32;;;;;;;3.45;1.90;;;16.00;99.90;;;;;;5051721;28;20240;-77
2022/10/02 11:42:38;;;;;;;2.25;2.03;;;16.00;99.90;;;;;;5044904;28;20189;-78
2022/10/02 11:45:46;;;;;;;5.30;2.70;;;15.90;99.90;;;;;;5059883;28;20244;-76
2022/10/02 11:49:00;;;;;;;3.13;2.40;;;15.90;99.90;;;;;;5049364;28;20197;-77
2022/10/02 11:51:59;;;;;;;4.10;2.65;;;15.90;99.90;;;;;;5052159;28;20648;-77
2022/10/02 11:54:49;;;;;;;3.95;2.50;;;15.90;99.90;;;;;;5050748;28;20193;-77
2022/10/02 11:57:44;;;;;;;2.95;2.55;;;15.90;99.90;;;;;;5028930;28;20354;-77
2022/10/02 12:00:44;;;;;;;3.63;2.85;;;15.80;99.90;;;;;;5013081;28;20225;-77
2022/10/02 12:03:26;;;;;;;3.55;2.90;;;15.80;99.90;;;;;;5023866;28;20293;-77
2022/10/02 12:06:05;;;;;;;4.95;3.00;;;15.80;99.90;;;;;;5032128;28;20283;-77
2022/10/02 12:08:50;;;;;;;4.65;3.10;;;15.80;99.90;;;;;;5034911;28;20217;-77
2022/10/02 12:11:32;;;;;;;3.70;3.30;;;15.70;99.90;;;;;;5030684;28;20229;-76
2022/10/02 12:14:24;;;;;;;6.47;3.85;;;15.70;99.90;;;;;;5021469;28;20281;-77
2022/10/02 12:17:21;;;;;;;4.53;3.28;;;15.70;99.90;;;;;;5013746;28;20194;-77
2022/10/02 12:28:51;;;;;;;6.60;2.70;;;15.60;99.90;;;;;;5032224;28;20611;-77
2022/10/02 12:31:31;;;;;;;2.92;2.30;;;15.60;99.90;;;;;;5027695;28;20205;-77
2022/10/02 12:34:08;;;;;;;3.95;2.42;;;15.50;99.90;;;;;;5022482;28;20205;-78
2022/10/02 12:36:50;;;;;;;3.78;2.53;;;15.50;99.90;;;;;;5053784;28;20224;-77
2022/10/02 12:39:42;;;;;;;2.85;2.53;;;15.40;99.90;;;;;;5036137;28;20223;-77
2022/10/02 12:43:03;;;;;;;3.95;2.10;;;15.30;99.90;;;;;;5029987;28;20197;-77
2022/10/02 12:45:59;;;;;;;4.38;2.50;;;15.20;99.90;;;;;;5015263;28;20283;-78
2022/10/02 12:48:45;;;;;;;3.03;2.35;;;15.30;99.90;;;;;;5030013;28;20262;-77
2022/10/02 12:51:36;;;;;;;4.82;2.40;;;15.20;99.90;;;;;;5012987;28;20665;-78
2022/10/02 12:54:45;;;;;;;3.92;2.83;;;15.20;99.90;;;;;;5013706;28;20204;-77
2022/10/02 12:57:57;;;;;;;3.90;2.70;;;15.20;99.90;;;;;;5014962;28;20204;-77
2022/10/02 13:00:37;;;;;;;4.18;2.80;;;15.20;99.90;;;;;;5026782;28;20200;-78
2022/10/02 13:03:50;;;;;;;2.88;2.33;;;15.10;99.90;;;;;;5037735;28;20260;-77
2022/10/02 13:06:58;;;;;;;5.45;2.92;;;15.10;99.90;;;;;;5030789;28;20383;-77
2022/10/02 13:09:42;;;;;;;4.78;2.90;;;15.10;99.90;;;;;;5038120;28;20263;-77
2022/10/02 13:12:26;;;;;;;4.30;2.33;;;15.10;99.90;;;;;;5030548;28;20209;-79
2022/10/02 13:15:24;;;;;;;5.82;3.05;;;15.10;99.90;;;;;;5047804;28;20275;-77
2022/10/02 13:18:06;;;;;;;3.90;2.88;;;15.10;99.90;;;;;;5046741;28;20614;-78
2022/10/02 13:20:48;;;;;;;5.78;2.92;;;15.10;99.90;;;;;;5049500;28;20203;-77
2022/10/02 13:23:28;;;;;;;3.95;2.70;;;15.10;99.90;;;;;;5012821;28;20232;-78
2022/10/02 13:26:07;;;;;;;3.72;2.67;;;15.10;99.90;;;;;;5012978;28;20315;-79
2022/10/02 13:29:18;;;;;;;4.40;2.85;;;15.10;99.90;;;;;;5030443;28;20197;-78
2022/10/02 13:32:30;;;;;;;5.90;2.72;;;15.10;99.90;;;;;;5032282;28;20196;-78
2022/10/02 13:35:16;;;;;;;3.67;2.65;;;15.00;99.90;;;;;;4958462;28;20231;-78
2022/10/02 13:37:59;;;;;;;4.60;2.88;;;15.00;99.90;;;;;;4953479;29;20199;-78
2022/10/02 13:40:36;;;;;;;5.07;2.72;;;14.90;99.90;;;;;;5000608;28;20205;-81
2022/10/02 13:43:37;;;;;;;4.72;2.97;;;15.00;99.90;;;;;;5019033;28;20201;-79
2022/10/02 13:46:22;;;;;;;5.75;2.70;;;15.00;99.90;;;;;;5014360;28;20228;-79
2022/10/02 13:49:06;;;;;;;3.85;2.90;;;15.00;99.90;;;;;;5022279;28;20291;-79
2022/10/02 13:51:47;;;;;;;3.95;2.60;;;15.00;99.90;;;;;;5030667;28;20197;-80
2022/10/02 13:54:32;;;;;;;3.47;2.80;;;15.00;99.90;;;;;;5011906;28;20213;-79
2022/10/02 13:57:10;;;;;;;5.43;2.80;;;15.00;99.90;;;;;;5020857;28;20205;-79
2022/10/02 13:59:56;;;;;;;4.40;3.08;;;14.90;99.90;;;;;;5030419;28;20196;-79
2022/10/02 14:02:47;;;;;;;3.28;2.70;;;14.90;99.90;;;;;;5029789;28;20209;-79
2022/10/02 14:05:27;;;;;;;5.22;2.60;;;14.90;99.90;;;;;;5016959;28;20706;-79
2022/10/02 14:08:17;;;;;;;4.10;3.10;;;15.00;99.90;;;;;;5017722;28;20205;-79
2022/10/02 14:11:08;;;;;;;5.35;2.97;;;14.90;99.90;;;;;;5029259;28;20285;-79
2022/10/02 14:13:55;;;;;;;4.22;2.70;;;14.90;99.90;;;;;;5027218;28;20212;-79
2022/10/02 14:16:42;;;;;;;3.60;2.80;;;14.90;99.90;;;;;;5031075;28;20698;-79
2022/10/02 14:19:44;;;;;;;4.57;2.95;;;14.80;99.90;;;;;;5030400;28;20201;-78
2022/10/02 14:22:42;;;;;;;4.85;3.05;;;14.80;99.90;;;;;;5031166;28;20197;-78
2022/10/02 14:25:33;;;;;;;5.78;3.03;;;14.80;99.90;;;;;;5030582;28;20201;-78
2022/10/02 14:28:41;;;;;;;4.35;3.08;;;14.70;99.90;;;;;;5026943;28;20212;-80
2022/10/02 14:31:36;;;;;;;4.05;3.03;;;14.70;99.90;;;;;;4987050;28;20200;-80
2022/10/02 14:34:40;;;;;;;4.43;3.30;;;14.70;99.90;;;;;;5015750;28;20212;-79
2022/10/02 14:37:48;;;;;;;5.53;3.50;;;14.70;99.90;;;;;;4966758;28;20624;-79
2022/10/02 14:40:20;;;;;;;3.90;2.80;;;14.70;99.90;;;;;;5028090;28;20597;-80
2022/10/02 14:43:15;;;;;;;4.97;3.35;;;14.70;99.90;;;;;;5043026;28;20201;-79
2022/10/02 14:46:08;;;;;;;3.88;2.83;;;14.70;99.90;;;;;;5033199;28;20233;-80
2022/10/02 14:49:01;;;;;;;3.85;3.22;;;14.60;99.90;;;;;;5027987;28;20271;-80
2022/10/02 14:52:03;;;;;;;3.45;3.00;;;14.60;99.90;;;;;;5014845;28;20202;-80
2022/10/02 14:55:03;;;;;;;5.90;3.08;;;14.60;99.90;;;;;;5016689;28;20212;-80
2022/10/02 14:57:52;;;;;;;3.70;2.80;;;14.60;99.90;;;;;;5047787;28;20196;-80
2022/10/02 15:00:25;;;;;;;5.32;3.30;;;14.60;99.90;;;;;;5054704;28;20205;-80
2022/10/02 15:03:20;;;;;;;5.20;3.40;;;14.70;99.90;;;;;;5052602;28;20200;-79